logo
Search for airport 
image banner adimage banner adimage banner ad
image banner ad

SHHF - Hospital Fach

Located in Santiago, Chile

ICAO - SHHF, IATA -

Data provided by Airmate  

General information

Coordinates: S33°23'50" W70°32'45"
Elevation is 2574 feet MSL.
 
View others Airports in Santiago Metropolitan Region

Operational data

Special qualification required
Current time UTC:
Current local time:
Weather at : SCTB - Eulogio Sanchez - Tobalaba ( 7 km )
METAR: SCTB 171500Z 00000KT 6000 BKN130 OVC160 12/06 Q1018
View NOTAMs / SUP AIP / TFR affecting this airport [VIEW]
Communications frequencies: [VIEW]

Runways:

Airport contact information

Address: Santiago Chile

Satellite view of SHHF